createdAt,value
2023-04-11T18:42:07.459Z,99187.80
2023-04-11T18:44:43.564Z,99197.44
2023-04-11T18:47:19.098Z,99195.70
2023-04-11T18:49:57.563Z,99190.48
2023-04-11T18:52:35.067Z,99188.80
2023-04-11T18:55:15.109Z,99187.08
2023-04-11T18:57:53.107Z,99186.22
2023-04-11T19:00:38.739Z,99194.95
2023-04-11T19:03:14.084Z,99188.84
2023-04-11T19:05:54.233Z,99182.70
2023-04-11T19:08:32.623Z,99175.73
2023-04-11T19:11:12.959Z,99179.19
2023-04-11T21:17:29.915Z,99196.95
2023-04-11T21:20:05.226Z,99189.04
2023-04-11T21:22:40.354Z,99192.46
2023-04-11T21:25:13.814Z,99193.31
2023-04-11T21:27:47.695Z,99192.45
2023-04-11T21:30:20.905Z,99200.23
2023-04-11T21:32:54.209Z,99199.36
2023-04-11T21:35:29.639Z,99197.60
2023-04-11T21:38:02.828Z,99205.42
2023-04-11T21:40:37.927Z,99198.41
2023-04-11T21:43:15.933Z,99197.48
2023-04-11T21:45:48.986Z,99193.10
2023-04-11T21:48:24.209Z,99198.31
2023-04-11T21:50:59.378Z,99198.31
2023-04-11T21:53:34.481Z,99197.45
2023-04-11T21:56:11.811Z,99200.94
2023-04-11T21:58:45.076Z,99198.33
2023-04-11T22:01:20.430Z,99194.87
2023-04-11T22:03:53.685Z,99203.59
2023-04-11T22:06:29.623Z,99194.91
2023-04-11T22:09:03.746Z,99200.14
2023-04-11T22:11:36.955Z,99190.58
2023-04-11T22:14:12.084Z,99193.23
2023-04-11T22:16:47.911Z,99190.63
2023-04-11T22:19:23.828Z,99201.97
2023-04-11T22:21:59.167Z,99190.64
2023-04-11T22:24:34.738Z,99192.40
2023-04-11T22:27:10.052Z,99184.61
2023-04-11T22:29:45.190Z,99187.23
2023-04-11T22:32:20.136Z,99188.98
2023-04-11T22:34:53.495Z,99186.37
2023-04-11T22:37:26.739Z,99188.09
2023-04-11T22:40:00.160Z,99186.37
2023-04-11T22:42:33.396Z,99191.60
2023-04-11T22:45:08.301Z,99186.37
2023-04-11T22:47:43.362Z,99189.83
2023-04-11T22:50:20.326Z,99187.22
2023-04-11T22:52:55.009Z,99193.29
2023-04-11T22:55:32.500Z,99193.25
2023-04-11T22:58:05.909Z,99189.80
2023-04-11T23:00:39.774Z,99193.31
2023-04-11T23:03:15.866Z,99185.48
2023-04-11T23:05:49.789Z,99189.00
2023-04-11T23:08:24.452Z,99182.98
2023-04-11T23:10:58.450Z,99188.20
2023-04-11T23:13:32.440Z,99184.69
2023-04-11T23:16:16.343Z,99179.52
2023-04-11T23:40:19.550Z,99175.20
2023-04-11T23:42:58.680Z,99186.44
2023-04-11T23:45:33.532Z,99177.75
2023-04-11T23:48:10.722Z,99179.52
2023-04-11T23:50:44.077Z,99184.73
2023-04-11T23:53:19.825Z,99182.98
2023-04-11T23:55:54.840Z,99176.91
2023-04-11T23:58:28.333Z,99180.38
